sensor_id;sensor_type;location;lat;lon;timestamp;P1;durP1;ratioP1;P2;durP2;ratioP2
73104;SDS011;61296;50.526;30.792;2022-10-17T00:14:00;14.30;;;8.35;;
73104;SDS011;61296;50.526;30.792;2022-10-17T00:29:20;20.45;;;9.15;;
73104;SDS011;61296;50.526;30.792;2022-10-17T00:59:58;15.48;;;8.35;;
73104;SDS011;61296;50.526;30.792;2022-10-17T01:31:15;17.42;;;8.48;;
73104;SDS011;61296;50.526;30.792;2022-10-17T01:46:42;18.10;;;8.93;;
73104;SDS011;61296;50.526;30.792;2022-10-17T02:02:07;18.70;;;9.57;;
73104;SDS011;61296;50.526;30.792;2022-10-17T02:33:15;18.88;;;8.95;;
73104;SDS011;61296;50.526;30.792;2022-10-17T02:48:41;19.02;;;9.98;;
73104;SDS011;61296;50.526;30.792;2022-10-17T03:04:06;19.58;;;9.75;;
73104;SDS011;61296;50.526;30.792;2022-10-17T03:19:31;21.25;;;9.73;;
73104;SDS011;61296;50.526;30.792;2022-10-17T03:34:50;21.80;;;10.40;;
73104;SDS011;61296;50.526;30.792;2022-10-17T03:50:13;23.05;;;11.40;;
73104;SDS011;61296;50.526;30.792;2022-10-17T04:05:34;24.55;;;12.38;;
73104;SDS011;61296;50.526;30.792;2022-10-17T04:20:54;26.77;;;11.48;;
73104;SDS011;61296;50.526;30.792;2022-10-17T04:36:15;22.63;;;11.23;;
73104;SDS011;61296;50.526;30.792;2022-10-17T04:51:36;19.77;;;10.68;;
73104;SDS011;61296;50.526;30.792;2022-10-17T05:07:22;18.17;;;10.50;;
73104;SDS011;61296;50.526;30.792;2022-10-17T05:22:54;33.33;;;16.95;;
73104;SDS011;61296;50.526;30.792;2022-10-17T05:38:14;28.50;;;15.05;;
73104;SDS011;61296;50.526;30.792;2022-10-17T05:53:38;27.95;;;13.88;;
73104;SDS011;61296;50.526;30.792;2022-10-17T06:09:02;29.23;;;13.60;;
73104;SDS011;61296;50.526;30.792;2022-10-17T06:24:26;23.08;;;12.75;;
73104;SDS011;61296;50.526;30.792;2022-10-17T06:39:46;23.00;;;12.02;;
73104;SDS011;61296;50.526;30.792;2022-10-17T06:55:10;20.30;;;10.27;;
73104;SDS011;61296;50.526;30.792;2022-10-17T07:10:40;23.65;;;10.85;;
73104;SDS011;61296;50.526;30.792;2022-10-17T07:26:02;14.25;;;8.00;;
73104;SDS011;61296;50.526;30.792;2022-10-17T07:41:27;15.37;;;7.77;;
73104;SDS011;61296;50.526;30.792;2022-10-17T07:56:47;15.70;;;8.18;;
73104;SDS011;61296;50.526;30.792;2022-10-17T08:12:08;14.85;;;8.02;;
73104;SDS011;61296;50.526;30.792;2022-10-17T08:27:28;12.95;;;6.95;;
73104;SDS011;61296;50.526;30.792;2022-10-17T08:58:40;11.90;;;5.78;;
73104;SDS011;61296;50.526;30.792;2022-10-17T09:29:36;8.88;;;4.90;;
73104;SDS011;61296;50.526;30.792;2022-10-17T10:00:43;32.25;;;6.43;;
73104;SDS011;61296;50.526;30.792;2022-10-17T10:31:50;14.88;;;5.03;;
73104;SDS011;61296;50.526;30.792;2022-10-17T10:47:24;8.80;;;4.70;;
73104;SDS011;61296;50.526;30.792;2022-10-17T11:03:00;10.00;;;4.43;;
73104;SDS011;61296;50.526;30.792;2022-10-17T11:18:41;11.82;;;5.90;;
73104;SDS011;61296;50.526;30.792;2022-10-17T11:34:09;10.07;;;5.03;;
73104;SDS011;61296;50.526;30.792;2022-10-17T11:49:39;8.50;;;4.80;;
73104;SDS011;61296;50.526;30.792;2022-10-17T12:05:18;11.60;;;5.28;;
73104;SDS011;61296;50.526;30.792;2022-10-17T12:20:38;8.30;;;4.22;;
73104;SDS011;61296;50.526;30.792;2022-10-17T13:07:49;12.32;;;4.35;;
73104;SDS011;61296;50.526;30.792;2022-10-17T13:23:23;11.27;;;4.55;;
73104;SDS011;61296;50.526;30.792;2022-10-17T13:38:42;11.50;;;5.65;;
73104;SDS011;61296;50.526;30.792;2022-10-17T13:54:15;12.05;;;5.05;;
73104;SDS011;61296;50.526;30.792;2022-10-17T14:09:35;19.80;;;5.35;;
73104;SDS011;61296;50.526;30.792;2022-10-17T14:24:55;17.27;;;6.53;;
73104;SDS011;61296;50.526;30.792;2022-10-17T14:40:18;11.15;;;6.15;;
73104;SDS011;61296;50.526;30.792;2022-10-17T14:55:53;11.80;;;6.07;;
73104;SDS011;61296;50.526;30.792;2022-10-17T15:11:14;16.55;;;7.53;;
73104;SDS011;61296;50.526;30.792;2022-10-17T15:26:35;16.30;;;8.85;;
73104;SDS011;61296;50.526;30.792;2022-10-17T15:41:54;18.70;;;9.85;;
73104;SDS011;61296;50.526;30.792;2022-10-17T15:57:18;27.95;;;14.88;;
73104;SDS011;61296;50.526;30.792;2022-10-17T16:12:39;37.87;;;18.13;;
73104;SDS011;61296;50.526;30.792;2022-10-17T16:27:59;26.83;;;14.23;;
73104;SDS011;61296;50.526;30.792;2022-10-17T16:43:19;27.42;;;14.43;;
73104;SDS011;61296;50.526;30.792;2022-10-17T16:58:39;28.48;;;14.25;;
73104;SDS011;61296;50.526;30.792;2022-10-17T17:13:59;30.63;;;15.98;;
73104;SDS011;61296;50.526;30.792;2022-10-17T17:29:22;43.50;;;17.77;;
73104;SDS011;61296;50.526;30.792;2022-10-17T17:44:42;30.88;;;14.88;;
73104;SDS011;61296;50.526;30.792;2022-10-17T18:00:01;27.30;;;13.02;;
73104;SDS011;61296;50.526;30.792;2022-10-17T18:15:22;26.52;;;13.90;;
73104;SDS011;61296;50.526;30.792;2022-10-17T18:30:42;32.35;;;16.13;;
73104;SDS011;61296;50.526;30.792;2022-10-17T18:46:05;25.95;;;13.98;;
73104;SDS011;61296;50.526;30.792;2022-10-17T19:01:32;25.50;;;12.60;;
73104;SDS011;61296;50.526;30.792;2022-10-17T19:16:52;24.08;;;11.48;;
73104;SDS011;61296;50.526;30.792;2022-10-17T19:32:12;20.80;;;11.63;;
73104;SDS011;61296;50.526;30.792;2022-10-17T19:47:31;27.45;;;12.32;;
73104;SDS011;61296;50.526;30.792;2022-10-17T20:02:51;23.73;;;11.77;;
73104;SDS011;61296;50.526;30.792;2022-10-17T20:18:10;26.67;;;12.93;;
73104;SDS011;61296;50.526;30.792;2022-10-17T20:33:30;28.45;;;12.27;;
73104;SDS011;61296;50.526;30.792;2022-10-17T20:48:50;26.45;;;12.95;;
73104;SDS011;61296;50.526;30.792;2022-10-17T21:04:10;23.23;;;12.02;;
73104;SDS011;61296;50.526;30.792;2022-10-17T21:19:30;28.13;;;13.80;;
73104;SDS011;61296;50.526;30.792;2022-10-17T21:34:50;26.13;;;11.88;;
73104;SDS011;61296;50.526;30.792;2022-10-17T21:50:09;25.85;;;12.35;;
73104;SDS011;61296;50.526;30.792;2022-10-17T22:05:29;22.65;;;11.77;;
73104;SDS011;61296;50.526;30.792;2022-10-17T22:20:48;22.27;;;11.10;;
73104;SDS011;61296;50.526;30.792;2022-10-17T22:36:08;26.27;;;12.05;;
73104;SDS011;61296;50.526;30.792;2022-10-17T22:51:31;22.90;;;12.00;;
73104;SDS011;61296;50.526;30.792;2022-10-17T23:06:50;20.38;;;10.98;;
73104;SDS011;61296;50.526;30.792;2022-10-17T23:22:10;19.98;;;10.70;;
73104;SDS011;61296;50.526;30.792;2022-10-17T23:37:29;21.17;;;10.85;;
73104;SDS011;61296;50.526;30.792;2022-10-17T23:52:49;23.13;;;10.55;;
